createdAt,value
2023-02-12T00:00:54.138Z,15.95
2023-02-12T00:03:21.319Z,18.67
2023-02-12T00:05:48.783Z,42.72
2023-02-12T00:08:15.870Z,44.75
2023-02-12T00:10:43.853Z,50.47
2023-02-12T00:13:11.981Z,46.70
2023-02-12T00:15:43.196Z,47.70
2023-02-12T00:18:10.701Z,47.05
2023-02-12T00:20:38.601Z,43.17
2023-02-12T00:23:06.350Z,41.45
2023-02-12T00:25:34.784Z,32.88
2023-02-12T00:28:01.959Z,29.90
2023-02-12T00:30:29.167Z,19.55
2023-02-12T00:32:56.073Z,18.65
2023-02-12T00:35:23.021Z,17.60
2023-02-12T00:37:50.353Z,14.15
2023-02-12T00:40:17.395Z,18.10
2023-02-12T00:42:44.391Z,17.27
2023-02-12T00:45:11.528Z,13.95
2023-02-12T00:47:38.603Z,13.85
2023-02-12T00:50:06.184Z,15.10
2023-02-12T00:52:33.224Z,35.17
2023-02-12T00:55:00.004Z,39.67
2023-02-12T00:57:26.906Z,40.80
2023-02-12T00:59:53.789Z,39.22
2023-02-12T01:02:20.652Z,38.10
2023-02-12T01:04:47.594Z,30.30
2023-02-12T01:07:14.517Z,35.83
2023-02-12T01:09:41.401Z,34.40
2023-02-12T01:12:08.474Z,36.97
2023-02-12T01:14:35.468Z,29.65
2023-02-12T01:17:02.309Z,35.67
2023-02-12T01:19:29.087Z,34.65
2023-02-12T01:21:56.134Z,35.60
2023-02-12T01:24:23.063Z,38.30
2023-02-12T01:26:49.884Z,36.75
2023-02-12T01:29:16.796Z,41.80
2023-02-12T01:31:43.792Z,27.70
2023-02-12T01:34:11.903Z,20.73
2023-02-12T01:36:39.746Z,18.85
2023-02-12T01:39:06.678Z,20.67
2023-02-12T01:41:37.073Z,18.88
2023-02-12T01:44:23.313Z,16.88
2023-02-12T01:46:56.168Z,14.50
2023-02-12T01:49:46.573Z,12.95
2023-02-12T01:52:33.276Z,14.88
2023-02-12T01:55:03.998Z,14.10
2023-02-12T01:57:33.552Z,13.45
2023-02-12T02:00:03.944Z,14.30
2023-02-12T02:02:32.302Z,15.07
2023-02-12T02:05:02.960Z,14.68
2023-02-12T02:07:30.510Z,16.15
2023-02-12T02:09:57.942Z,15.32
2023-02-12T02:12:31.230Z,14.32
2023-02-12T02:15:00.085Z,12.55
2023-02-12T02:17:44.859Z,14.50
2023-02-12T02:20:30.095Z,13.60
2023-02-12T02:23:02.999Z,17.00
2023-02-12T02:26:00.681Z,17.98
2023-02-12T02:28:46.171Z,13.70
2023-02-12T02:31:32.198Z,14.55
2023-02-12T02:34:20.743Z,17.33
2023-02-12T02:37:00.736Z,14.27
2023-02-12T02:39:48.854Z,16.30
2023-02-12T02:42:48.779Z,16.30
2023-02-12T02:45:35.090Z,14.20
2023-02-12T02:48:26.429Z,14.10
2023-02-12T02:50:59.939Z,16.67
2023-02-12T02:53:45.399Z,15.90
2023-02-12T02:56:17.668Z,15.52
2023-02-12T02:59:04.684Z,13.10
2023-02-12T03:01:36.646Z,12.38
2023-02-12T03:04:31.147Z,14.63
2023-02-12T03:07:16.540Z,13.98
2023-02-12T03:10:14.106Z,14.68
2023-02-12T03:12:48.513Z,13.27
2023-02-12T03:15:43.411Z,13.27
2023-02-12T03:18:19.677Z,15.35
2023-02-12T03:20:51.833Z,14.73
2023-02-12T03:23:28.024Z,14.70
2023-02-12T03:26:01.905Z,14.68
2023-02-12T03:28:35.040Z,12.35
2023-02-12T03:31:21.114Z,13.82
2023-02-12T03:34:12.202Z,14.93
2023-02-12T03:36:59.052Z,14.02
2023-02-12T03:39:30.772Z,15.50
2023-02-12T03:42:24.485Z,14.13
2023-02-12T03:45:06.353Z,14.68
2023-02-12T03:47:51.663Z,14.15
2023-02-12T03:50:28.002Z,15.15
2023-02-12T03:52:54.869Z,11.00
2023-02-12T03:55:21.780Z,11.77
2023-02-12T03:57:53.322Z,12.40
2023-02-12T04:00:24.136Z,12.88
2023-02-12T04:02:51.916Z,13.68
2023-02-12T04:05:22.039Z,10.98
2023-02-12T04:07:50.606Z,12.50
2023-02-12T04:10:18.124Z,11.98
2023-02-12T04:12:57.858Z,12.65
2023-02-12T04:16:02.390Z,12.52
2023-02-12T04:18:39.526Z,13.93
2023-02-12T04:21:28.935Z,15.25
2023-02-12T04:24:25.647Z,14.95
2023-02-12T04:27:01.710Z,12.40
2023-02-12T04:29:49.890Z,16.48
2023-02-12T04:32:31.789Z,13.73
2023-02-12T04:35:10.998Z,13.02
2023-02-12T04:37:48.515Z,15.45
2023-02-12T04:40:21.268Z,15.80
2023-02-12T04:42:50.471Z,15.18
2023-02-12T04:45:29.257Z,13.65
2023-02-12T04:47:56.577Z,14.02
2023-02-12T04:50:23.651Z,13.93
2023-02-12T04:52:50.674Z,14.80
2023-02-12T04:55:17.792Z,13.32
2023-02-12T04:57:44.747Z,12.88
2023-02-12T05:00:15.471Z,12.32
2023-02-12T05:02:42.337Z,12.93
2023-02-12T05:05:09.183Z,11.63
2023-02-12T05:07:36.139Z,12.75
2023-02-12T05:10:03.864Z,14.75
2023-02-12T05:12:30.694Z,13.52
2023-02-12T05:14:58.323Z,14.30
2023-02-12T05:17:25.307Z,15.02
2023-02-12T05:19:52.212Z,15.77
2023-02-12T05:22:19.356Z,12.95
2023-02-12T05:24:46.275Z,14.05
2023-02-12T05:27:13.267Z,12.82
2023-02-12T05:29:40.233Z,12.95
2023-02-12T05:32:07.291Z,12.38
2023-02-12T05:34:34.772Z,12.27
2023-02-12T05:37:01.823Z,11.63
2023-02-12T05:39:28.656Z,11.77
2023-02-12T05:41:55.582Z,12.30
2023-02-12T05:44:22.463Z,12.02
2023-02-12T05:46:49.363Z,10.07
2023-02-12T05:49:16.209Z,9.93
2023-02-12T05:51:43.107Z,10.20
2023-02-12T05:54:10.464Z,10.05
2023-02-12T05:56:42.565Z,10.00
2023-02-12T05:59:16.072Z,10.50
2023-02-12T06:01:45.080Z,11.18
2023-02-12T06:04:23.748Z,10.73
2023-02-12T06:06:52.168Z,8.43
2023-02-12T06:09:19.209Z,9.95
2023-02-12T06:11:46.282Z,9.38
2023-02-12T06:14:16.318Z,9.18
2023-02-12T06:16:46.136Z,10.82
2023-02-12T06:19:13.340Z,10.05
2023-02-12T06:21:40.234Z,10.23
2023-02-12T06:24:07.838Z,9.80
2023-02-12T06:26:34.736Z,9.93
2023-02-12T06:29:02.030Z,10.43
2023-02-12T06:31:30.621Z,9.70
2023-02-12T06:34:00.525Z,9.55
2023-02-12T06:36:28.046Z,9.27
2023-02-12T06:38:55.164Z,9.48
2023-02-12T06:41:23.530Z,9.27
2023-02-12T06:43:53.229Z,9.90
2023-02-12T06:46:20.408Z,9.45
2023-02-12T06:48:47.256Z,9.50
2023-02-12T06:51:17.383Z,8.60
2023-02-12T06:53:45.169Z,9.23
2023-02-12T06:56:13.734Z,10.02
2023-02-12T06:58:42.919Z,11.13
2023-02-12T07:01:24.741Z,10.82
2023-02-12T07:04:03.154Z,10.55
2023-02-12T07:06:31.949Z,9.73
2023-02-12T07:08:59.233Z,11.32
2023-02-12T07:11:29.914Z,10.10
2023-02-12T07:13:59.684Z,12.10
2023-02-12T07:16:32.799Z,10.70
2023-02-12T07:18:59.716Z,10.55
2023-02-12T07:21:26.703Z,9.63
2023-02-12T07:23:53.716Z,8.95
2023-02-12T07:26:21.720Z,9.68
2023-02-12T07:28:49.721Z,10.13
2023-02-12T07:31:21.011Z,13.35
2023-02-12T07:33:48.945Z,10.93
2023-02-12T07:36:18.450Z,11.43
2023-02-12T07:38:45.621Z,11.90
2023-02-12T07:41:24.406Z,9.95
2023-02-12T07:43:59.587Z,9.88
2023-02-12T07:46:30.397Z,9.23
2023-02-12T07:49:03.251Z,8.90
2023-02-12T07:51:30.881Z,10.25
2023-02-12T07:53:57.800Z,8.85
2023-02-12T07:56:27.518Z,9.00
2023-02-12T07:58:54.453Z,9.98
2023-02-12T08:01:26.385Z,10.77
2023-02-12T08:03:54.244Z,11.05
2023-02-12T08:06:22.737Z,11.35
2023-02-12T08:08:55.548Z,15.55
2023-02-12T08:11:23.345Z,17.35
2023-02-12T08:13:50.730Z,17.35
2023-02-12T08:16:23.408Z,15.77
2023-02-12T08:18:50.716Z,16.95
2023-02-12T08:21:28.945Z,15.27
2023-02-12T08:23:58.006Z,13.75
2023-02-12T08:26:36.765Z,15.40
2023-02-12T08:29:22.224Z,15.57
2023-02-12T08:31:51.241Z,16.88
2023-02-12T08:34:23.940Z,17.52
2023-02-12T08:36:52.968Z,16.52
2023-02-12T08:39:20.606Z,19.52
2023-02-12T08:41:48.733Z,16.90
2023-02-12T08:44:16.856Z,18.60
2023-02-12T08:46:47.445Z,20.30
2023-02-12T08:49:20.113Z,17.27
2023-02-12T08:51:49.626Z,18.95
2023-02-12T08:54:19.745Z,18.50
2023-02-12T08:56:47.242Z,15.88
2023-02-12T08:59:15.819Z,16.80
2023-02-12T09:01:44.020Z,19.25
2023-02-12T09:04:16.931Z,19.13
2023-02-12T09:06:45.239Z,18.50
2023-02-12T09:09:12.365Z,18.60
2023-02-12T09:11:39.468Z,19.05
2023-02-12T09:14:11.381Z,18.17
2023-02-12T09:16:38.978Z,17.15
2023-02-12T09:19:06.321Z,19.15
2023-02-12T09:21:36.223Z,20.15
2023-02-12T09:24:03.841Z,18.02
2023-02-12T09:26:31.548Z,20.25
2023-02-12T09:28:58.533Z,16.02
2023-02-12T09:31:28.306Z,15.85
2023-02-12T09:33:58.578Z,16.15
2023-02-12T09:36:25.781Z,16.50
2023-02-12T09:38:53.692Z,17.48
2023-02-12T09:42:01.454Z,15.65
2023-02-12T09:44:34.194Z,16.13
2023-02-12T09:47:36.557Z,18.80
2023-02-12T09:50:23.439Z,19.73
2023-02-12T09:52:54.985Z,19.92
2023-02-12T09:55:26.008Z,20.65
2023-02-12T09:57:54.900Z,18.52
2023-02-12T10:00:30.089Z,21.35
2023-02-12T10:03:03.271Z,22.67
2023-02-12T10:05:41.736Z,20.30
2023-02-12T10:08:22.160Z,19.70
2023-02-12T10:11:13.172Z,19.35
2023-02-12T10:14:28.621Z,20.23
2023-02-12T10:17:15.374Z,16.90
2023-02-12T10:19:51.600Z,20.17
2023-02-12T10:22:18.662Z,19.23
2023-02-12T10:25:19.836Z,20.90
2023-02-12T10:27:53.324Z,21.25
2023-02-12T10:30:26.696Z,21.55
2023-02-12T10:33:01.061Z,19.35
2023-02-12T10:35:28.318Z,20.75
2023-02-12T10:38:06.602Z,17.92
2023-02-12T10:40:35.484Z,20.55
2023-02-12T10:43:03.173Z,21.80
2023-02-12T10:45:33.617Z,20.57
2023-02-12T10:48:21.693Z,19.02
2023-02-12T10:51:10.292Z,20.83
2023-02-12T10:53:40.103Z,21.45
2023-02-12T10:56:12.778Z,19.15
2023-02-12T10:58:41.974Z,16.87
2023-02-12T11:01:17.697Z,16.23
2023-02-12T11:03:44.808Z,19.15
2023-02-12T11:06:19.947Z,17.95
2023-02-12T11:08:47.574Z,17.30
2023-02-12T11:11:16.865Z,15.93
2023-02-12T11:13:54.594Z,18.77
2023-02-12T11:16:34.742Z,16.75
2023-02-12T11:19:07.780Z,16.75
2023-02-12T11:21:36.411Z,17.33
2023-02-12T11:24:29.738Z,18.67
2023-02-12T11:27:17.023Z,17.85
2023-02-12T11:29:46.807Z,19.38
2023-02-12T11:32:21.042Z,19.83
2023-02-12T11:35:21.862Z,17.98
2023-02-12T11:37:49.109Z,19.67
2023-02-12T11:40:24.764Z,22.77
2023-02-12T11:43:07.981Z,20.35
2023-02-12T11:45:49.085Z,21.33
2023-02-12T11:48:24.277Z,14.48
2023-02-12T11:50:53.599Z,14.10
2023-02-12T11:53:29.268Z,15.80
2023-02-12T11:56:01.221Z,19.80
2023-02-12T11:58:29.505Z,17.73
2023-02-12T12:01:12.770Z,19.00
2023-02-12T12:03:49.990Z,22.00
2023-02-12T12:06:42.247Z,22.42
2023-02-12T12:09:28.232Z,20.20
2023-02-12T12:12:10.457Z,25.08
2023-02-12T12:14:46.694Z,19.27
2023-02-12T12:17:17.336Z,19.03
2023-02-12T12:20:11.956Z,19.02
2023-02-12T12:22:53.727Z,20.30
2023-02-12T12:25:29.415Z,20.52
2023-02-12T12:28:31.212Z,21.58
2023-02-12T12:31:48.329Z,21.30
2023-02-12T12:34:18.923Z,20.75
2023-02-12T12:37:13.201Z,21.55
2023-02-12T12:39:58.352Z,21.75
2023-02-12T12:42:50.178Z,20.67
2023-02-12T12:45:42.979Z,21.77
2023-02-12T12:48:26.264Z,19.50
2023-02-12T12:51:08.078Z,22.67
2023-02-12T12:53:50.211Z,20.08
2023-02-12T12:56:48.158Z,20.98
2023-02-12T12:59:45.715Z,22.13
2023-02-12T13:02:43.682Z,21.55
2023-02-12T13:05:40.002Z,21.45
2023-02-12T13:08:35.975Z,20.67
2023-02-12T13:11:35.541Z,20.35
2023-02-12T13:14:38.525Z,22.88
2023-02-12T13:18:00.640Z,24.67
2023-02-12T13:20:44.647Z,25.27
2023-02-12T13:23:30.102Z,23.63
2023-02-12T13:26:27.783Z,21.75
2023-02-12T13:29:01.119Z,21.65
2023-02-12T13:31:33.969Z,23.50
2023-02-12T13:34:05.372Z,21.20
2023-02-12T13:36:36.690Z,22.90
2023-02-12T13:39:45.825Z,23.23
2023-02-12T13:42:42.654Z,28.10
2023-02-12T13:45:24.773Z,25.17
2023-02-12T13:48:12.307Z,27.20
2023-02-12T13:50:45.302Z,22.13
2023-02-12T13:53:27.154Z,23.75
2023-02-12T13:56:12.743Z,21.65
2023-02-12T13:58:40.215Z,20.88
2023-02-12T14:01:11.054Z,22.85
2023-02-12T14:03:39.238Z,22.20
2023-02-12T14:06:18.432Z,19.92
2023-02-12T14:08:50.929Z,22.63
2023-02-12T14:11:25.057Z,21.95
2023-02-12T14:13:56.400Z,23.30
2023-02-12T14:16:29.000Z,23.10
2023-02-12T14:19:34.540Z,22.65
2023-02-12T14:22:10.065Z,23.13
2023-02-12T14:24:37.199Z,23.23
2023-02-12T14:27:30.139Z,21.10
2023-02-12T14:30:12.279Z,24.77
2023-02-12T14:32:51.395Z,22.77
2023-02-12T14:35:27.370Z,22.83
2023-02-12T14:38:00.142Z,24.40
2023-02-12T14:40:33.311Z,25.38
2023-02-12T14:43:03.259Z,25.88
2023-02-12T14:45:39.518Z,22.15
2023-02-12T14:48:06.595Z,23.27
2023-02-12T14:50:41.570Z,24.27
2023-02-12T14:53:31.896Z,25.00
2023-02-12T14:56:00.281Z,25.23
2023-02-12T14:58:28.853Z,22.13
2023-02-12T15:01:02.353Z,24.30
2023-02-12T15:03:38.896Z,23.35
2023-02-12T15:06:16.842Z,23.92
2023-02-12T15:09:09.399Z,21.60
2023-02-12T15:11:45.337Z,20.13
2023-02-12T15:14:29.573Z,24.05
2023-02-12T15:17:18.713Z,26.63
2023-02-12T15:20:03.929Z,22.70
2023-02-12T15:22:37.326Z,19.67
2023-02-12T15:25:28.335Z,23.15
2023-02-12T15:28:01.946Z,24.30
2023-02-12T15:30:32.493Z,22.33
2023-02-12T15:33:04.310Z,20.65
2023-02-12T15:35:38.311Z,21.27
2023-02-12T15:38:06.479Z,22.55
2023-02-12T15:40:33.754Z,22.88
2023-02-12T15:43:03.489Z,23.08
2023-02-12T15:45:33.509Z,24.38
2023-02-12T15:48:11.379Z,21.52
2023-02-12T15:50:53.471Z,22.98
2023-02-12T15:53:22.372Z,22.67
2023-02-12T15:55:51.451Z,20.35
2023-02-12T15:58:51.471Z,22.65
2023-02-12T16:01:24.351Z,20.08
2023-02-12T16:03:57.152Z,18.33
2023-02-12T16:06:28.051Z,20.55
2023-02-12T16:08:58.002Z,21.80
2023-02-12T16:11:26.265Z,20.02
2023-02-12T16:13:58.764Z,21.52
2023-02-12T16:16:28.206Z,22.05
2023-02-12T16:19:17.325Z,21.42
2023-02-12T16:21:46.506Z,22.15
2023-02-12T16:24:29.560Z,21.98
2023-02-12T16:26:58.775Z,20.17
2023-02-12T16:29:26.194Z,23.75
2023-02-12T16:32:02.581Z,20.00
2023-02-12T16:34:38.218Z,20.65
2023-02-12T16:37:45.185Z,23.50
2023-02-12T16:40:15.941Z,22.58
2023-02-12T16:42:48.839Z,25.15
2023-02-12T16:45:29.194Z,26.05
2023-02-12T16:48:02.479Z,23.08
2023-02-12T16:50:29.744Z,20.48
2023-02-12T16:53:02.152Z,22.98
2023-02-12T16:55:29.444Z,21.52
2023-02-12T16:57:56.462Z,23.55
2023-02-12T17:00:23.892Z,25.50
2023-02-12T17:02:51.610Z,24.23
2023-02-12T17:05:19.271Z,25.45
2023-02-12T17:07:46.317Z,21.42
2023-02-12T17:10:15.700Z,23.38
2023-02-12T17:12:52.016Z,24.50
2023-02-12T17:15:30.750Z,22.25
2023-02-12T17:17:57.761Z,23.80
2023-02-12T17:20:25.048Z,26.05
2023-02-12T17:22:55.078Z,26.02
2023-02-12T17:25:22.567Z,25.40
2023-02-12T17:27:49.663Z,28.88
2023-02-12T17:30:18.732Z,24.35
2023-02-12T17:32:47.559Z,26.23
2023-02-12T17:35:15.042Z,28.23
2023-02-12T17:37:42.296Z,21.30
2023-02-12T17:40:13.362Z,22.67
2023-02-12T17:42:40.898Z,23.98
2023-02-12T17:45:08.548Z,24.05
2023-02-12T17:47:35.535Z,22.80
2023-02-12T17:50:02.681Z,20.88
2023-02-12T17:52:30.614Z,22.23
2023-02-12T17:54:58.586Z,21.27
2023-02-12T17:57:25.498Z,21.30
2023-02-12T17:59:52.427Z,21.25
2023-02-12T18:02:20.543Z,24.63
2023-02-12T18:04:47.587Z,24.15
2023-02-12T18:07:14.666Z,24.55
2023-02-12T18:09:42.047Z,20.40
2023-02-12T18:12:09.286Z,24.10
2023-02-12T18:14:36.773Z,24.52
2023-02-12T18:17:04.019Z,27.27
2023-02-12T18:19:31.045Z,23.55
2023-02-12T18:21:57.976Z,25.95
2023-02-12T18:24:25.026Z,29.08
2023-02-12T18:26:52.108Z,27.85
2023-02-12T18:29:19.488Z,27.30
2023-02-12T18:31:46.871Z,27.85
2023-02-12T18:34:16.873Z,24.58
2023-02-12T18:36:43.819Z,21.90
2023-02-12T18:39:10.821Z,24.95
2023-02-12T18:41:37.735Z,23.10
2023-02-12T18:44:07.918Z,22.02
2023-02-12T18:46:34.948Z,24.88
2023-02-12T18:49:02.445Z,25.20
2023-02-12T18:51:30.712Z,20.67
2023-02-12T18:54:00.616Z,22.33
2023-02-12T18:56:29.802Z,30.40
2023-02-12T18:58:58.764Z,30.13
2023-02-12T19:01:27.388Z,26.45
2023-02-12T19:03:59.445Z,26.50
2023-02-12T19:06:31.092Z,40.85
2023-02-12T19:09:01.770Z,27.60
2023-02-12T19:11:30.062Z,21.38
2023-02-12T19:13:58.339Z,19.42
2023-02-12T19:16:26.844Z,20.35
2023-02-12T19:18:56.646Z,20.58
2023-02-12T19:21:24.727Z,22.92
2023-02-12T19:23:55.932Z,20.17
2023-02-12T19:26:24.940Z,19.70
2023-02-12T19:28:52.472Z,20.88
2023-02-12T19:31:22.872Z,18.45
2023-02-12T19:33:51.196Z,20.98
2023-02-12T19:36:19.887Z,21.73
2023-02-12T19:38:48.762Z,22.45
2023-02-12T19:41:18.845Z,20.58
2023-02-12T19:43:46.735Z,19.38
2023-02-12T19:46:19.490Z,18.38
2023-02-12T19:48:47.985Z,18.15
2023-02-12T19:51:19.737Z,21.80
2023-02-12T19:53:47.793Z,17.50
2023-02-12T19:56:16.425Z,20.42
2023-02-12T19:58:44.261Z,20.45
2023-02-12T20:01:14.413Z,17.25
2023-02-12T20:03:41.287Z,20.67
2023-02-12T20:06:13.411Z,20.30
2023-02-12T20:08:41.989Z,20.13
2023-02-12T20:11:15.960Z,22.77
2023-02-12T20:13:43.555Z,20.15
2023-02-12T20:16:13.641Z,19.85
2023-02-12T20:18:40.978Z,20.45
2023-02-12T20:21:12.507Z,20.85
2023-02-12T20:23:39.919Z,19.27
2023-02-12T20:26:10.944Z,18.33
2023-02-12T20:28:39.904Z,21.00
2023-02-12T20:31:11.369Z,19.38
2023-02-12T20:33:39.220Z,17.63
2023-02-12T20:36:07.236Z,16.52
2023-02-12T20:38:34.529Z,20.17
2023-02-12T20:41:05.018Z,18.73
2023-02-12T20:43:33.448Z,20.33
2023-02-12T20:46:08.000Z,17.80
2023-02-12T20:48:35.628Z,21.45
2023-02-12T20:51:07.882Z,17.08
2023-02-12T20:53:35.946Z,22.25
2023-02-12T20:56:09.140Z,20.55
2023-02-12T20:58:36.702Z,18.75
2023-02-12T21:01:06.369Z,19.13
2023-02-12T21:03:33.943Z,16.58
2023-02-12T21:06:01.742Z,22.60
2023-02-12T21:08:30.861Z,19.23
2023-02-12T21:11:16.696Z,15.23
2023-02-12T21:13:47.410Z,14.95
2023-02-12T21:16:19.955Z,17.55
2023-02-12T21:18:47.560Z,15.40
2023-02-12T21:21:20.754Z,16.35
2023-02-12T21:23:47.809Z,16.02
2023-02-12T21:26:18.580Z,17.52
2023-02-12T21:28:47.368Z,15.05
2023-02-12T21:31:16.099Z,15.18
2023-02-12T21:33:46.266Z,15.23
2023-02-12T21:36:17.014Z,17.30
2023-02-12T21:38:45.858Z,15.95
2023-02-12T21:41:12.696Z,15.13
2023-02-12T21:43:42.942Z,16.25
2023-02-12T21:46:14.079Z,16.60
2023-02-12T21:48:41.518Z,17.23
2023-02-12T21:51:16.835Z,20.38
2023-02-12T21:53:43.781Z,15.52
2023-02-12T21:56:10.696Z,17.27
2023-02-12T21:58:37.775Z,17.17
2023-02-12T22:01:13.820Z,15.10
2023-02-12T22:03:41.303Z,15.30
2023-02-12T22:06:09.334Z,16.88
2023-02-12T22:08:39.449Z,14.93
2023-02-12T22:11:12.031Z,15.60
2023-02-12T22:13:39.362Z,17.58
2023-02-12T22:16:12.467Z,17.60
2023-02-12T22:18:40.902Z,15.20
2023-02-12T22:21:12.969Z,16.40
2023-02-12T22:23:41.633Z,14.93
2023-02-12T22:26:16.456Z,16.58
2023-02-12T22:28:45.870Z,16.98
2023-02-12T22:31:15.882Z,15.30
2023-02-12T22:33:42.772Z,13.82
2023-02-12T22:36:10.335Z,15.75
2023-02-12T22:38:38.849Z,13.43
2023-02-12T22:41:06.938Z,12.55
2023-02-12T22:43:38.704Z,12.75
2023-02-12T22:46:07.591Z,13.55
2023-02-12T22:48:35.181Z,12.93
2023-02-12T22:51:08.856Z,11.52
2023-02-12T22:53:35.776Z,11.23
2023-02-12T22:56:07.130Z,12.38
2023-02-12T22:58:34.611Z,11.82
2023-02-12T23:01:15.986Z,11.98
2023-02-12T23:03:43.116Z,12.30
2023-02-12T23:06:16.093Z,12.60
2023-02-12T23:08:43.205Z,13.07
2023-02-12T23:11:11.095Z,11.55
2023-02-12T23:13:38.377Z,11.25
2023-02-12T23:16:05.702Z,10.68
2023-02-12T23:18:32.965Z,10.05
2023-02-12T23:21:00.843Z,10.27
2023-02-12T23:23:28.462Z,12.13
2023-02-12T23:25:55.901Z,11.00
2023-02-12T23:28:23.774Z,13.07
2023-02-12T23:30:52.289Z,9.98
2023-02-12T23:33:20.425Z,11.05
2023-02-12T23:35:48.203Z,10.18
2023-02-12T23:38:15.930Z,11.00
2023-02-12T23:40:43.515Z,9.20
2023-02-12T23:43:10.877Z,9.18
2023-02-12T23:45:37.923Z,8.95
2023-02-12T23:48:05.146Z,9.30
2023-02-12T23:50:32.081Z,10.30
2023-02-12T23:52:59.627Z,10.38
2023-02-12T23:55:26.661Z,11.07
2023-02-12T23:57:53.720Z,11.95
